createdAt,value
2022-12-11T00:01:33.641Z,25.42
2022-12-11T00:04:00.248Z,25.65
2022-12-11T00:06:26.733Z,24.42
2022-12-11T00:08:54.585Z,26.23
2022-12-11T00:11:22.686Z,26.85
2022-12-11T00:13:49.164Z,24.55
2022-12-11T00:16:15.970Z,24.95
2022-12-11T00:18:42.581Z,26.45
2022-12-11T00:21:13.894Z,27.25
2022-12-11T00:23:40.965Z,22.98
2022-12-11T00:26:11.875Z,22.83
2022-12-11T00:28:39.030Z,22.90
2022-12-11T00:31:07.897Z,25.27
2022-12-11T00:33:35.010Z,24.85
2022-12-11T00:36:02.252Z,25.73
2022-12-11T00:38:29.286Z,25.13
2022-12-11T00:40:59.945Z,25.58
2022-12-11T00:43:26.929Z,26.52
2022-12-11T00:45:53.520Z,27.45
2022-12-11T00:48:20.232Z,26.77
2022-12-11T00:50:47.248Z,26.95
2022-12-11T00:53:14.341Z,27.50
2022-12-11T00:55:42.301Z,25.52
2022-12-11T00:58:09.492Z,26.58
2022-12-11T01:00:36.553Z,26.10
2022-12-11T01:03:04.172Z,28.98
2022-12-11T01:05:31.602Z,25.27
2022-12-11T01:07:58.580Z,26.50
2022-12-11T01:10:25.675Z,27.70
2022-12-11T01:13:06.124Z,25.52
2022-12-11T01:15:41.514Z,26.50
2022-12-11T01:18:09.454Z,26.67
2022-12-11T01:20:38.252Z,26.90
2022-12-11T01:23:05.216Z,25.00
2022-12-11T01:25:33.339Z,25.42
2022-12-11T01:28:00.314Z,23.88
2022-12-11T01:30:27.356Z,25.90
2022-12-11T01:32:54.346Z,25.52
2022-12-11T01:35:21.124Z,24.08
2022-12-11T01:37:48.053Z,26.67
2022-12-11T01:40:17.352Z,26.38
2022-12-11T01:42:44.053Z,27.08
2022-12-11T01:45:26.724Z,25.40
2022-12-11T01:48:10.401Z,23.33
2022-12-11T01:50:41.851Z,25.55
2022-12-11T01:53:12.827Z,26.45
2022-12-11T01:55:40.534Z,24.90
2022-12-11T01:58:08.828Z,23.65
2022-12-11T02:00:35.917Z,24.00
2022-12-11T02:03:02.469Z,21.25
2022-12-11T02:05:28.998Z,23.73
2022-12-11T02:08:00.468Z,23.42
2022-12-11T02:10:47.798Z,23.38
2022-12-11T02:13:26.545Z,22.13
2022-12-11T02:16:21.631Z,23.77
2022-12-11T02:19:08.597Z,24.38
2022-12-11T02:21:41.146Z,23.92
2022-12-11T02:24:36.825Z,24.08
2022-12-11T02:27:22.124Z,24.90
2022-12-11T02:30:08.782Z,23.02
2022-12-11T02:32:43.404Z,22.70
2022-12-11T02:35:33.569Z,23.08
2022-12-11T02:38:06.022Z,23.15
2022-12-11T02:40:37.516Z,24.48
2022-12-11T02:43:08.546Z,23.00
2022-12-11T02:45:37.207Z,25.90
2022-12-11T02:48:06.571Z,23.60
2022-12-11T02:50:37.222Z,26.40
2022-12-11T02:53:06.386Z,25.08
2022-12-11T02:55:37.371Z,25.27
2022-12-11T02:58:18.344Z,23.10
2022-12-11T03:00:46.397Z,23.58
2022-12-11T03:03:13.618Z,22.60
2022-12-11T03:05:42.449Z,23.70
2022-12-11T03:08:09.818Z,24.27
2022-12-11T03:10:36.839Z,23.33
2022-12-11T03:13:05.394Z,25.92
2022-12-11T03:15:59.137Z,21.73
2022-12-11T03:18:36.403Z,23.38
2022-12-11T03:21:13.093Z,22.15
2022-12-11T03:23:51.567Z,22.30
2022-12-11T03:26:20.144Z,24.00
2022-12-11T03:29:00.940Z,23.08
2022-12-11T03:31:34.592Z,24.65
2022-12-11T03:34:08.598Z,23.90
2022-12-11T03:36:38.735Z,22.98
2022-12-11T03:39:13.281Z,22.30
2022-12-11T03:41:41.118Z,22.67
2022-12-11T03:44:09.189Z,23.08
2022-12-11T03:46:39.552Z,21.20
2022-12-11T03:49:11.529Z,22.10
2022-12-11T03:51:39.278Z,23.38
2022-12-11T03:54:07.078Z,21.83
2022-12-11T03:56:38.421Z,21.63
2022-12-11T03:59:05.527Z,21.13
2022-12-11T04:01:32.553Z,21.20
2022-12-11T04:03:59.142Z,19.65
2022-12-11T04:06:26.204Z,21.30
2022-12-11T04:08:53.200Z,20.00
2022-12-11T04:11:34.735Z,20.02
2022-12-11T04:14:25.026Z,20.65
2022-12-11T04:16:52.162Z,20.20
2022-12-11T04:19:37.890Z,20.58
2022-12-11T04:22:33.565Z,20.20
2022-12-11T04:25:05.712Z,20.50
2022-12-11T04:27:51.146Z,18.67
2022-12-11T04:32:46.350Z,16.95
2022-12-11T04:35:13.990Z,18.20
2022-12-11T04:37:41.315Z,16.90
2022-12-11T04:40:12.564Z,18.63
2022-12-11T04:42:39.622Z,18.05
2022-12-11T04:45:08.421Z,16.63
2022-12-11T04:47:39.983Z,16.48
2022-12-11T04:50:09.143Z,17.38
2022-12-11T04:52:35.725Z,17.60
2022-12-11T04:55:08.503Z,16.58
2022-12-11T04:57:35.358Z,16.67
2022-12-11T05:00:02.365Z,15.98
2022-12-11T05:02:29.037Z,16.58
2022-12-11T05:04:55.544Z,15.13
2022-12-11T05:07:22.520Z,15.07
2022-12-11T05:09:49.682Z,16.17
2022-12-11T05:12:16.225Z,15.23
2022-12-11T05:14:42.724Z,14.55
2022-12-11T05:17:09.712Z,15.52
2022-12-11T05:19:36.838Z,16.50
2022-12-11T05:22:04.008Z,16.85
2022-12-11T05:24:30.532Z,15.15
2022-12-11T05:26:57.568Z,17.48
2022-12-11T05:29:24.639Z,15.75
2022-12-11T05:31:51.433Z,15.38
2022-12-11T05:34:17.934Z,14.27
2022-12-11T05:36:44.961Z,15.85
2022-12-11T05:39:12.437Z,15.45
2022-12-11T05:41:39.125Z,16.83
2022-12-11T05:44:06.266Z,16.20
2022-12-11T05:46:32.861Z,16.27
2022-12-11T05:49:01.620Z,15.73
2022-12-11T05:51:29.908Z,17.13
2022-12-11T05:53:58.013Z,15.32
2022-12-11T05:56:27.488Z,15.90
2022-12-11T05:58:55.637Z,17.55
2022-12-11T06:01:23.829Z,15.48
2022-12-11T06:03:50.425Z,16.02
2022-12-11T06:06:17.031Z,16.35
2022-12-11T06:08:44.196Z,15.73
2022-12-11T06:11:13.994Z,15.82
2022-12-11T06:13:40.985Z,15.02
2022-12-11T06:16:08.496Z,16.55
2022-12-11T06:18:41.182Z,15.70
2022-12-11T06:21:16.225Z,17.45
2022-12-11T06:26:11.298Z,17.17
2022-12-11T06:28:38.609Z,15.57
2022-12-11T06:31:06.216Z,17.02
2022-12-11T06:33:32.797Z,18.52
2022-12-11T06:36:12.227Z,18.27
2022-12-11T06:38:39.553Z,19.10
2022-12-11T06:41:08.110Z,20.00
2022-12-11T06:43:36.680Z,17.75
2022-12-11T06:46:24.732Z,18.42
2022-12-11T06:48:51.376Z,18.95
2022-12-11T06:51:20.982Z,17.08
2022-12-11T06:53:52.591Z,18.20
2022-12-11T06:56:20.255Z,18.45
2022-12-11T06:58:47.298Z,19.45
2022-12-11T07:01:22.572Z,18.00
2022-12-11T07:03:49.874Z,20.48
2022-12-11T07:06:18.160Z,17.55
2022-12-11T07:08:45.262Z,17.77
2022-12-11T07:11:14.955Z,18.55
2022-12-11T07:13:44.766Z,18.13
2022-12-11T07:16:13.425Z,20.15
2022-12-11T07:18:42.143Z,18.85
2022-12-11T07:21:10.444Z,19.63
2022-12-11T07:23:37.051Z,19.85
2022-12-11T07:26:11.867Z,17.80
2022-12-11T07:28:39.224Z,18.00
2022-12-11T07:31:12.083Z,18.92
2022-12-11T07:33:39.544Z,18.80
2022-12-11T07:36:09.149Z,19.08
2022-12-11T07:38:36.284Z,16.95
2022-12-11T07:41:05.399Z,18.77
2022-12-11T07:43:32.950Z,18.25
2022-12-11T07:46:09.224Z,17.23
2022-12-11T07:48:37.273Z,17.13
2022-12-11T07:51:13.124Z,15.93
2022-12-11T07:53:39.625Z,17.00
2022-12-11T07:56:06.808Z,17.83
2022-12-11T07:58:33.991Z,17.02
2022-12-11T08:01:00.826Z,16.02
2022-12-11T08:03:27.375Z,17.42
2022-12-11T08:05:53.960Z,16.77
2022-12-11T08:08:20.578Z,16.77
2022-12-11T08:10:47.376Z,17.38
2022-12-11T08:13:14.480Z,18.83
2022-12-11T08:15:41.017Z,18.05
2022-12-11T08:18:07.567Z,17.33
2022-12-11T08:20:34.121Z,18.15
2022-12-11T08:23:00.632Z,18.95
2022-12-11T08:25:27.173Z,18.65
2022-12-11T08:27:53.689Z,18.92
2022-12-11T08:30:20.717Z,17.17
2022-12-11T08:32:47.216Z,19.30
2022-12-11T08:35:13.774Z,19.30
2022-12-11T08:37:40.361Z,19.05
2022-12-11T08:40:07.843Z,19.75
2022-12-11T08:42:34.377Z,18.98
2022-12-11T08:45:00.871Z,19.73
2022-12-11T08:47:27.719Z,18.70
2022-12-11T08:49:54.710Z,18.88
2022-12-11T08:52:21.257Z,17.80
2022-12-11T08:54:48.367Z,20.38
2022-12-11T08:57:15.046Z,20.08
2022-12-11T08:59:41.600Z,17.92
2022-12-11T09:02:12.665Z,17.95
2022-12-11T09:04:39.254Z,18.33
2022-12-11T09:07:05.862Z,19.42
2022-12-11T09:09:32.397Z,17.10
2022-12-11T09:12:01.426Z,16.77
2022-12-11T09:14:28.046Z,17.38
2022-12-11T09:16:54.614Z,17.88
2022-12-11T09:19:21.196Z,16.98
2022-12-11T09:21:47.804Z,16.90
2022-12-11T09:24:15.602Z,14.77
2022-12-11T09:26:42.214Z,15.95
2022-12-11T09:29:08.847Z,16.73
2022-12-11T09:31:36.911Z,16.63
2022-12-11T09:34:09.045Z,15.82
2022-12-11T09:36:37.997Z,17.35
2022-12-11T09:39:06.241Z,17.38
2022-12-11T09:41:38.407Z,17.65
2022-12-11T09:44:26.686Z,18.27
2022-12-11T09:46:53.551Z,16.80
2022-12-11T09:49:25.844Z,16.70
2022-12-11T09:52:10.942Z,18.35
2022-12-11T09:54:45.396Z,18.48
2022-12-11T09:57:30.393Z,13.05
2022-12-11T10:00:11.426Z,17.70
2022-12-11T10:03:19.779Z,18.23
2022-12-11T10:06:05.671Z,17.70
2022-12-11T10:08:40.199Z,16.30
2022-12-11T10:11:43.652Z,19.80
2022-12-11T10:14:29.834Z,16.92
2022-12-11T10:17:21.451Z,17.00
2022-12-11T10:19:48.938Z,17.90
2022-12-11T10:22:22.823Z,18.13
2022-12-11T10:25:10.621Z,18.02
2022-12-11T10:27:40.110Z,18.85
2022-12-11T10:30:13.069Z,17.15
2022-12-11T10:33:17.795Z,16.50
2022-12-11T10:35:55.648Z,17.60
2022-12-11T10:38:33.851Z,17.50
2022-12-11T10:41:10.724Z,16.92
2022-12-11T10:43:43.376Z,16.98
2022-12-11T10:46:25.374Z,16.00
2022-12-11T10:48:54.833Z,16.42
2022-12-11T10:51:24.481Z,17.00
2022-12-11T10:54:05.557Z,15.82
2022-12-11T10:56:37.344Z,17.42
2022-12-11T10:59:04.416Z,17.95
2022-12-11T11:01:33.165Z,18.10
2022-12-11T11:04:06.716Z,18.00
2022-12-11T11:06:33.641Z,18.10
2022-12-11T11:09:01.909Z,19.52
2022-12-11T11:11:38.281Z,18.75
2022-12-11T11:14:11.887Z,18.27
2022-12-11T11:16:40.679Z,18.75
2022-12-11T11:19:07.757Z,18.15
2022-12-11T11:21:35.937Z,19.60
2022-12-11T11:24:03.627Z,19.95
2022-12-11T11:27:04.366Z,19.70
2022-12-11T11:29:29.541Z,18.52
2022-12-11T11:31:56.963Z,20.05
2022-12-11T11:34:23.616Z,18.63
2022-12-11T11:36:58.762Z,18.33
2022-12-11T11:39:45.082Z,19.85
2022-12-11T11:42:52.660Z,20.50
2022-12-11T11:45:31.869Z,20.95
2022-12-11T11:48:11.258Z,19.67
2022-12-11T11:50:44.917Z,19.70
2022-12-11T11:53:37.964Z,19.38
2022-12-11T11:56:21.296Z,18.65
2022-12-11T11:59:07.167Z,17.88
2022-12-11T12:01:33.717Z,19.17
2022-12-11T12:04:03.150Z,18.05
2022-12-11T12:06:55.126Z,17.80
2022-12-11T12:09:52.527Z,17.90
2022-12-11T12:12:34.418Z,18.67
2022-12-11T12:15:20.533Z,18.15
2022-12-11T12:18:22.827Z,18.10
2022-12-11T12:21:11.257Z,17.33
2022-12-11T12:24:09.264Z,17.67
2022-12-11T12:26:38.942Z,18.08
2022-12-11T12:29:30.394Z,18.10
2022-12-11T12:32:02.849Z,15.93
2022-12-11T12:35:06.633Z,17.33
2022-12-11T12:37:51.203Z,14.93
2022-12-11T12:40:18.102Z,11.93
2022-12-11T12:43:06.915Z,15.55
2022-12-11T12:46:02.801Z,16.55
2022-12-11T12:48:30.063Z,16.15
2022-12-11T12:50:57.158Z,15.68
2022-12-11T12:53:27.676Z,15.70
2022-12-11T12:55:54.962Z,17.08
2022-12-11T12:58:40.057Z,17.05
2022-12-11T13:01:17.967Z,16.10
2022-12-11T13:03:54.207Z,15.10
2022-12-11T13:06:43.480Z,16.90
2022-12-11T13:09:25.162Z,15.75
2022-12-11T13:11:57.606Z,15.80
2022-12-11T13:14:30.276Z,15.57
2022-12-11T13:17:20.333Z,16.67
2022-12-11T13:19:49.076Z,15.02
2022-12-11T13:22:16.029Z,15.20
2022-12-11T13:24:48.576Z,17.23
2022-12-11T13:27:30.597Z,15.45
2022-12-11T13:30:06.922Z,16.30
2022-12-11T13:32:34.717Z,15.55
2022-12-11T13:35:06.410Z,15.75
2022-12-11T13:37:37.182Z,16.55
2022-12-11T13:40:14.202Z,16.60
2022-12-11T13:42:53.337Z,15.50
2022-12-11T13:45:43.420Z,16.10
2022-12-11T13:48:20.016Z,15.80
2022-12-11T13:50:47.774Z,15.48
2022-12-11T13:53:17.003Z,15.68
2022-12-11T13:55:44.565Z,14.80
2022-12-11T13:58:20.240Z,15.05
2022-12-11T14:01:21.466Z,15.85
2022-12-11T14:04:00.015Z,16.20
2022-12-11T14:06:28.562Z,15.63
2022-12-11T14:08:59.383Z,15.60
2022-12-11T14:11:30.579Z,15.68
2022-12-11T14:14:00.793Z,15.05
2022-12-11T14:16:29.120Z,15.60
2022-12-11T14:19:09.740Z,16.63
2022-12-11T14:21:37.089Z,15.43
2022-12-11T14:24:06.553Z,17.42
2022-12-11T14:26:35.789Z,15.15
2022-12-11T14:29:02.945Z,16.92
2022-12-11T14:31:44.261Z,15.60
2022-12-11T14:34:18.240Z,14.93
2022-12-11T14:36:48.092Z,17.88
2022-12-11T14:39:21.154Z,15.27
2022-12-11T14:41:57.985Z,15.75
2022-12-11T14:44:28.040Z,16.20
2022-12-11T14:47:04.360Z,14.77
2022-12-11T14:49:45.461Z,15.80
2022-12-11T14:52:20.259Z,16.15
2022-12-11T14:54:54.122Z,17.80
2022-12-11T14:57:26.899Z,18.60
2022-12-11T14:59:55.350Z,19.67
2022-12-11T15:02:30.510Z,22.08
2022-12-11T15:05:23.572Z,19.00
2022-12-11T15:08:24.511Z,18.85
2022-12-11T15:11:14.693Z,21.85
2022-12-11T15:13:59.801Z,22.23
2022-12-11T15:16:31.863Z,18.83
2022-12-11T15:18:59.323Z,17.05
2022-12-11T15:21:31.503Z,17.70
2022-12-11T15:24:02.480Z,19.23
2022-12-11T15:26:38.749Z,17.42
2022-12-11T15:29:26.038Z,16.20
2022-12-11T15:32:19.025Z,18.67
2022-12-11T15:34:52.985Z,20.67
2022-12-11T15:37:22.562Z,19.85
2022-12-11T15:39:49.368Z,20.75
2022-12-11T15:42:23.042Z,18.83
2022-12-11T15:44:49.655Z,21.30
2022-12-11T15:47:22.240Z,30.70
2022-12-11T15:49:48.825Z,28.05
2022-12-11T15:52:15.688Z,23.23
2022-12-11T15:54:42.680Z,22.85
2022-12-11T15:57:16.578Z,22.58
2022-12-11T15:59:44.558Z,22.90
2022-12-11T16:02:13.049Z,19.85
2022-12-11T16:04:39.977Z,26.27
2022-12-11T16:07:18.530Z,26.38
2022-12-11T16:09:46.056Z,20.67
2022-12-11T16:12:14.326Z,20.67
2022-12-11T16:14:42.254Z,24.88
2022-12-11T16:17:10.166Z,26.67
2022-12-11T16:19:37.506Z,22.05
2022-12-11T16:22:05.206Z,21.67
2022-12-11T16:24:33.047Z,24.10
2022-12-11T16:26:59.650Z,21.83
2022-12-11T16:29:26.257Z,20.67
2022-12-11T16:31:52.731Z,19.98
2022-12-11T16:34:19.843Z,17.20
2022-12-11T16:36:46.562Z,27.23
2022-12-11T16:39:13.702Z,19.10
2022-12-11T16:41:40.242Z,16.75
2022-12-11T16:44:06.730Z,18.73
2022-12-11T16:46:33.574Z,17.73
2022-12-11T16:49:00.534Z,18.20
2022-12-11T16:51:27.129Z,20.17
2022-12-11T16:53:53.839Z,20.42
2022-12-11T16:56:20.395Z,18.15
2022-12-11T16:58:47.712Z,18.15
2022-12-11T17:01:16.115Z,18.17
2022-12-11T17:03:43.862Z,18.33
2022-12-11T17:06:13.485Z,16.70
2022-12-11T17:08:41.268Z,21.50
2022-12-11T17:11:12.955Z,21.88
2022-12-11T17:13:39.959Z,23.90
2022-12-11T17:16:08.661Z,22.80
2022-12-11T17:18:35.521Z,20.33
2022-12-11T17:21:10.452Z,23.02
2022-12-11T17:23:37.181Z,26.40
2022-12-11T17:26:03.965Z,31.40
2022-12-11T17:28:31.479Z,25.95
2022-12-11T17:30:59.136Z,22.77
2022-12-11T17:33:25.835Z,22.65
2022-12-11T17:35:52.462Z,26.25
2022-12-11T17:38:19.003Z,21.10
2022-12-11T17:40:45.565Z,20.02
2022-12-11T17:43:12.707Z,21.15
2022-12-11T17:45:43.371Z,23.02
2022-12-11T17:48:13.527Z,26.55
2022-12-11T17:50:44.869Z,25.25
2022-12-11T17:53:12.917Z,22.80
2022-12-11T17:55:44.295Z,24.20
2022-12-11T17:58:12.006Z,19.95
2022-12-11T18:00:40.844Z,23.27
2022-12-11T18:03:07.503Z,20.48
2022-12-11T18:05:34.850Z,20.70
2022-12-11T18:08:01.491Z,29.67
2022-12-11T18:10:28.137Z,27.90
2022-12-11T18:12:54.715Z,26.58
2022-12-11T18:15:21.272Z,23.00
2022-12-11T18:17:48.542Z,19.95
2022-12-11T18:20:15.987Z,25.27
2022-12-11T18:22:43.391Z,46.15
2022-12-11T18:25:12.337Z,45.47
2022-12-11T18:27:39.741Z,24.92
2022-12-11T18:30:07.497Z,25.33
2022-12-11T18:32:33.994Z,22.35
2022-12-11T18:35:00.526Z,19.67
2022-12-11T18:37:28.232Z,18.00
2022-12-11T18:39:54.940Z,20.20
2022-12-11T18:42:32.626Z,19.08
2022-12-11T18:45:00.040Z,17.42
2022-12-11T18:47:26.612Z,20.15
2022-12-11T18:49:53.845Z,22.60
2022-12-11T18:52:20.837Z,19.65
2022-12-11T18:54:48.045Z,19.33
2022-12-11T18:57:15.078Z,22.27
2022-12-11T18:59:41.592Z,25.88
2022-12-11T19:02:08.773Z,21.00
2022-12-11T19:04:36.162Z,21.05
2022-12-11T19:07:02.741Z,22.52
2022-12-11T19:09:31.662Z,24.27
2022-12-11T19:12:02.129Z,22.15
2022-12-11T19:14:28.629Z,19.52
2022-12-11T19:16:55.368Z,17.20
2022-12-11T19:19:22.293Z,18.83
2022-12-11T19:21:49.943Z,21.13
2022-12-11T19:24:20.068Z,28.58
2022-12-11T19:26:46.793Z,18.98
2022-12-11T19:29:26.566Z,17.58
2022-12-11T19:31:55.176Z,16.95
2022-12-11T19:34:23.211Z,18.58
2022-12-11T19:36:50.653Z,19.98
2022-12-11T19:39:17.804Z,19.83
2022-12-11T19:41:46.497Z,20.17
2022-12-11T19:44:13.125Z,18.83
2022-12-11T19:46:40.727Z,17.88
2022-12-11T19:49:07.379Z,19.45
2022-12-11T19:51:38.434Z,19.08
2022-12-11T19:54:06.953Z,16.83
2022-12-11T19:56:34.536Z,17.27
2022-12-11T19:59:07.426Z,17.00
2022-12-11T20:01:36.905Z,17.40
2022-12-11T20:04:07.612Z,17.85
2022-12-11T20:06:36.834Z,17.95
2022-12-11T20:09:05.266Z,17.67
2022-12-11T20:11:33.632Z,18.00
2022-12-11T20:14:00.481Z,16.60
2022-12-11T20:16:46.372Z,17.33
2022-12-11T20:19:14.009Z,18.25
2022-12-11T20:21:40.949Z,17.55
2022-12-11T20:24:07.877Z,16.45
2022-12-11T20:26:36.488Z,16.38
2022-12-11T20:29:07.202Z,18.02
2022-12-11T20:31:35.487Z,16.58
2022-12-11T20:34:02.881Z,17.95
2022-12-11T20:36:29.899Z,15.75
2022-12-11T20:38:57.029Z,14.75
2022-12-11T20:41:26.060Z,15.77
2022-12-11T20:43:54.059Z,17.48
2022-12-11T20:46:22.856Z,14.85
2022-12-11T20:48:50.003Z,17.58
2022-12-11T20:51:22.431Z,17.08
2022-12-11T20:53:58.288Z,15.18
2022-12-11T20:56:27.835Z,15.63
2022-12-11T20:58:55.444Z,15.07
2022-12-11T21:01:24.559Z,15.95
2022-12-11T21:03:52.720Z,15.95
2022-12-11T21:06:31.230Z,14.40
2022-12-11T21:09:00.238Z,14.15
2022-12-11T21:11:27.750Z,14.18
2022-12-11T21:13:54.807Z,13.25
2022-12-11T21:16:22.445Z,13.02
2022-12-11T21:18:49.742Z,13.27
2022-12-11T21:21:17.591Z,14.55
2022-12-11T21:23:44.996Z,13.15
2022-12-11T21:26:12.557Z,13.50
2022-12-11T21:28:39.140Z,13.88
2022-12-11T21:31:14.259Z,14.80
2022-12-11T21:33:40.968Z,13.98
2022-12-11T21:36:10.966Z,14.82
2022-12-11T21:38:37.707Z,14.10
2022-12-11T21:41:24.159Z,14.50
2022-12-11T21:44:56.702Z,13.13
2022-12-11T21:46:39.816Z,13.02
2022-12-11T21:49:08.312Z,12.88
2022-12-11T21:51:41.499Z,12.05
2022-12-11T21:54:14.380Z,12.65
2022-12-11T21:56:41.750Z,12.85
2022-12-11T21:59:10.267Z,12.75
2022-12-11T22:01:42.038Z,14.35
2022-12-11T22:04:10.962Z,13.15
2022-12-11T22:06:37.890Z,13.55
2022-12-11T22:09:05.175Z,13.25
2022-12-11T22:11:33.385Z,12.80
2022-12-11T22:14:00.564Z,13.80
2022-12-11T22:16:28.002Z,12.63
2022-12-11T22:18:55.064Z,11.88
2022-12-11T22:21:21.793Z,13.05
2022-12-11T22:23:48.471Z,13.02
2022-12-11T22:26:19.959Z,12.63
2022-12-11T22:28:46.751Z,11.90
2022-12-11T22:31:16.734Z,12.00
2022-12-11T22:33:43.600Z,13.15
2022-12-11T22:36:11.590Z,12.13
2022-12-11T22:38:39.467Z,12.35
2022-12-11T22:41:17.565Z,12.23
2022-12-11T22:43:48.867Z,11.60
2022-12-11T22:46:17.570Z,12.57
2022-12-11T22:48:44.665Z,13.43
2022-12-11T22:51:11.707Z,12.45
2022-12-11T22:53:39.092Z,11.63
2022-12-11T22:56:07.129Z,12.27
2022-12-11T22:58:33.745Z,11.63
2022-12-11T23:01:00.836Z,11.13
2022-12-11T23:03:27.902Z,11.73
2022-12-11T23:05:54.700Z,12.35
2022-12-11T23:08:21.255Z,12.18
2022-12-11T23:10:47.929Z,11.80
2022-12-11T23:13:14.637Z,10.95
2022-12-11T23:15:41.169Z,12.45
2022-12-11T23:18:08.237Z,10.90
2022-12-11T23:20:35.256Z,11.40
2022-12-11T23:23:02.789Z,10.57
2022-12-11T23:25:29.780Z,11.68
2022-12-11T23:27:56.425Z,11.30
2022-12-11T23:30:23.988Z,11.30
2022-12-11T23:32:50.658Z,12.10
2022-12-11T23:35:17.255Z,12.00
2022-12-11T23:37:44.225Z,12.35
2022-12-11T23:40:11.410Z,11.77
2022-12-11T23:42:37.933Z,11.05
2022-12-11T23:45:05.331Z,12.38
2022-12-11T23:47:31.884Z,13.68
2022-12-11T23:49:58.420Z,12.75
2022-12-11T23:52:26.584Z,11.77
2022-12-11T23:54:53.120Z,11.38
2022-12-11T23:57:20.058Z,11.23
2022-12-11T23:59:47.084Z,10.80
